createdAt,value
2019-02-27T00:00:29.075Z,2.00
2019-02-27T00:02:57.936Z,2.10
2019-02-27T00:05:26.554Z,2.10
2019-02-27T00:07:55.057Z,2.10
2019-02-27T00:10:23.674Z,2.00
2019-02-27T00:12:52.590Z,2.00
2019-02-27T00:15:21.090Z,2.00
2019-02-27T00:17:51.526Z,2.00
2019-02-27T00:20:19.715Z,2.00
2019-02-27T00:22:50.624Z,1.90
2019-02-27T00:25:18.376Z,2.00
2019-02-27T00:27:49.260Z,2.00
2019-02-27T00:30:17.293Z,2.00
2019-02-27T00:32:45.813Z,1.90
2019-02-27T00:35:14.267Z,1.90
2019-02-27T00:37:42.700Z,1.80
2019-02-27T00:40:11.294Z,1.70
2019-02-27T00:42:39.975Z,1.70
2019-02-27T00:45:10.151Z,1.70
2019-02-27T00:47:38.606Z,1.80
2019-02-27T00:50:09.251Z,1.70
2019-02-27T00:52:37.724Z,1.60
2019-02-27T00:55:07.406Z,1.50
2019-02-27T00:57:35.843Z,1.50
2019-02-27T01:00:07.078Z,1.50
2019-02-27T01:02:35.698Z,1.50
2019-02-27T01:05:06.227Z,1.50
2019-02-27T01:07:35.459Z,1.50
2019-02-27T01:10:05.234Z,1.50
2019-02-27T01:12:33.699Z,1.50
2019-02-27T01:15:02.148Z,1.40
2019-02-27T01:17:30.610Z,1.20
2019-02-27T01:19:59.048Z,1.20
2019-02-27T01:22:27.486Z,1.10
2019-02-27T01:24:57.063Z,1.10
2019-02-27T01:27:25.500Z,1.00
2019-02-27T01:29:53.953Z,0.80
2019-02-27T01:32:22.393Z,0.80
2019-02-27T01:34:50.838Z,0.90
2019-02-27T01:37:19.380Z,0.90
2019-02-27T01:39:47.818Z,0.90
2019-02-27T01:42:16.280Z,1.00
2019-02-27T01:44:46.651Z,1.00
2019-02-27T01:47:14.875Z,0.90
2019-02-27T01:49:43.327Z,1.00
2019-02-27T01:52:12.143Z,1.00
2019-02-27T01:54:40.680Z,1.00
2019-02-27T01:57:09.545Z,1.00
2019-02-27T01:59:38.011Z,1.00
2019-02-27T02:02:06.474Z,1.00
2019-02-27T02:04:34.974Z,1.00
2019-02-27T02:07:04.105Z,1.00
2019-02-27T02:09:34.948Z,0.90
2019-02-27T02:12:09.555Z,0.90
2019-02-27T02:14:58.718Z,0.80
2019-02-27T02:17:41.042Z,0.80
2019-02-27T02:20:28.263Z,0.70
2019-02-27T02:23:14.016Z,0.60
2019-02-27T02:26:05.478Z,0.50
2019-02-27T02:28:53.530Z,0.50
2019-02-27T02:31:46.000Z,0.50
2019-02-27T02:34:41.353Z,0.50
2019-02-27T02:37:38.079Z,0.50
2019-02-27T02:40:30.807Z,0.40
2019-02-27T02:43:12.884Z,0.30
2019-02-27T02:45:53.252Z,0.30
2019-02-27T02:48:45.781Z,0.20
2019-02-27T02:51:28.976Z,0.20
2019-02-27T02:54:17.252Z,0.30
2019-02-27T02:57:09.717Z,0.30
2019-02-27T02:59:59.889Z,0.40
2019-02-27T03:02:41.429Z,0.40
2019-02-27T03:05:32.585Z,0.40
2019-02-27T03:08:04.271Z,0.30
2019-02-27T03:10:53.584Z,0.30
2019-02-27T03:13:42.036Z,0.30
2019-02-27T03:16:24.990Z,0.30
2019-02-27T03:19:05.093Z,0.20
2019-02-27T03:21:35.140Z,0.20
2019-02-27T03:24:27.897Z,0.10
2019-02-27T03:27:06.709Z,0.10
2019-02-27T03:29:56.123Z,0.20
2019-02-27T03:32:27.658Z,0.20
2019-02-27T03:35:08.292Z,0.20
2019-02-27T03:37:55.796Z,0.20
2019-02-27T03:40:36.046Z,0.20
2019-02-27T03:43:16.948Z,0.20
2019-02-27T03:46:10.652Z,0.20
2019-02-27T03:49:11.908Z,0.10
2019-02-27T03:51:59.624Z,0.10
2019-02-27T03:54:45.236Z,0.00
2019-02-27T03:57:20.220Z,0.00
2019-02-27T04:00:19.900Z,-0.10
2019-02-27T04:03:09.288Z,-0.20
2019-02-27T04:06:05.376Z,-0.20
2019-02-27T04:09:19.831Z,-0.30
2019-02-27T04:11:46.969Z,-0.40
2019-02-27T04:14:32.427Z,-0.30
2019-02-27T04:17:21.948Z,-0.30
2019-02-27T04:19:50.496Z,-0.30
2019-02-27T04:22:18.964Z,-0.30
2019-02-27T04:24:47.530Z,-0.30
2019-02-27T04:27:20.212Z,-0.30
2019-02-27T04:29:46.247Z,-0.20
2019-02-27T04:32:14.703Z,-0.20
2019-02-27T04:34:43.166Z,-0.30
2019-02-27T04:37:30.951Z,-0.30
2019-02-27T04:39:59.420Z,-0.40
2019-02-27T04:42:27.944Z,-0.40
2019-02-27T04:44:56.387Z,-0.50
2019-02-27T04:47:28.876Z,-0.50
2019-02-27T04:49:55.079Z,-0.50
2019-02-27T04:52:24.394Z,-0.40
2019-02-27T04:54:53.363Z,-0.40
2019-02-27T04:57:21.823Z,-0.40
2019-02-27T04:59:52.232Z,-0.40
2019-02-27T05:02:20.463Z,-0.50
2019-02-27T05:04:49.400Z,-0.50
2019-02-27T05:07:20.262Z,-0.50
2019-02-27T05:09:48.280Z,-0.50
2019-02-27T05:12:16.862Z,-0.50
2019-02-27T05:14:45.311Z,-0.50
2019-02-27T05:17:13.789Z,-0.50
2019-02-27T05:19:42.230Z,-0.50
2019-02-27T05:22:10.685Z,-0.60
2019-02-27T05:24:40.976Z,-0.60
2019-02-27T05:27:09.318Z,-0.60
2019-02-27T05:29:38.147Z,-0.60
2019-02-27T05:32:06.614Z,-0.60
2019-02-27T05:34:35.067Z,-0.50
2019-02-27T05:37:05.319Z,-0.50
2019-02-27T05:39:46.087Z,-0.40
2019-02-27T05:42:10.715Z,-0.20
2019-02-27T05:44:39.172Z,-0.20
2019-02-27T05:47:08.655Z,-0.20
2019-02-27T05:49:37.832Z,-0.30
2019-02-27T05:52:06.378Z,-0.50
2019-02-27T05:54:34.866Z,-0.50
2019-02-27T05:57:03.314Z,-0.60
2019-02-27T05:59:32.031Z,-0.80
2019-02-27T06:02:00.491Z,-0.80
2019-02-27T06:04:28.944Z,-0.70
2019-02-27T06:06:57.386Z,-0.70
2019-02-27T06:09:25.947Z,-0.60
2019-02-27T06:11:54.403Z,-0.60
2019-02-27T06:14:22.846Z,-0.60
2019-02-27T06:16:51.319Z,-0.60
2019-02-27T06:19:19.766Z,-0.70
2019-02-27T06:21:48.235Z,-0.70
2019-02-27T06:24:23.270Z,-0.50
2019-02-27T06:26:51.807Z,-0.40
2019-02-27T06:29:23.278Z,-0.60
2019-02-27T06:31:50.430Z,-0.60
2019-02-27T06:34:18.871Z,-0.60
2019-02-27T06:36:47.335Z,-0.50
2019-02-27T06:39:15.775Z,-0.30
2019-02-27T06:41:44.425Z,-0.20
2019-02-27T06:44:12.931Z,-0.30
2019-02-27T06:46:41.392Z,-0.30
2019-02-27T06:49:09.902Z,-0.30
2019-02-27T06:51:38.360Z,-0.20
2019-02-27T06:54:06.802Z,0.00
2019-02-27T06:56:35.515Z,0.10
2019-02-27T06:59:04.026Z,0.30
2019-02-27T07:01:32.488Z,0.40
2019-02-27T07:04:02.295Z,0.60
2019-02-27T07:06:31.171Z,0.60
2019-02-27T07:08:59.616Z,0.70
2019-02-27T07:11:28.074Z,0.80
2019-02-27T07:13:56.514Z,0.90
2019-02-27T07:16:25.047Z,0.90
2019-02-27T07:18:53.554Z,1.00
2019-02-27T07:21:22.234Z,1.10
2019-02-27T07:23:50.695Z,1.20
2019-02-27T07:26:19.135Z,1.30
2019-02-27T07:28:47.572Z,1.40
2019-02-27T07:31:18.321Z,1.60
2019-02-27T07:33:46.205Z,1.80
2019-02-27T07:36:14.659Z,2.10
2019-02-27T07:38:43.106Z,2.40
2019-02-27T07:41:11.556Z,2.70
2019-02-27T07:43:40.009Z,3.10
2019-02-27T07:46:08.447Z,3.40
2019-02-27T07:48:36.892Z,3.80
2019-02-27T07:51:05.346Z,4.20
2019-02-27T07:53:33.782Z,4.50
2019-02-27T07:56:02.599Z,4.90
2019-02-27T07:58:33.709Z,5.00
2019-02-27T08:01:01.319Z,5.30
2019-02-27T08:03:29.781Z,5.70
2019-02-27T08:05:59.889Z,6.20
2019-02-27T08:08:28.371Z,6.50
2019-02-27T08:13:27.096Z,7.10
2019-02-27T08:15:55.341Z,7.60
2019-02-27T08:18:30.136Z,7.70
2019-02-27T08:20:54.626Z,8.00
2019-02-27T08:23:23.858Z,8.50
2019-02-27T08:25:52.535Z,8.80
2019-02-27T08:28:20.973Z,9.10
2019-02-27T08:30:49.492Z,9.50
2019-02-27T08:33:18.009Z,9.80
2019-02-27T08:35:46.457Z,10.10
2019-02-27T08:38:14.925Z,10.60
2019-02-27T08:40:43.367Z,11.10
2019-02-27T08:43:11.815Z,11.60
2019-02-27T08:45:40.302Z,11.90
2019-02-27T08:48:28.078Z,12.20
2019-02-27T08:50:56.622Z,12.50
2019-02-27T08:53:26.894Z,12.80
2019-02-27T08:55:55.231Z,13.10
2019-02-27T08:58:43.040Z,13.30
2019-02-27T09:01:11.815Z,13.50
2019-02-27T09:03:40.392Z,13.80
2019-02-27T09:06:09.153Z,14.00
2019-02-27T09:08:37.583Z,14.40
2019-02-27T09:11:06.868Z,14.80
2019-02-27T09:13:35.398Z,15.00
2019-02-27T09:16:03.980Z,15.30
2019-02-27T09:18:33.431Z,15.70
2019-02-27T09:21:02.664Z,15.90
2019-02-27T09:23:31.099Z,16.10
2019-02-27T09:26:02.461Z,16.50
2019-02-27T09:28:29.783Z,16.70
2019-02-27T09:31:03.182Z,16.60
2019-02-27T09:33:28.475Z,16.70
2019-02-27T09:35:56.982Z,16.70
2019-02-27T09:38:25.418Z,17.00
2019-02-27T09:40:53.883Z,17.10
2019-02-27T09:43:24.085Z,17.40
2019-02-27T09:45:52.563Z,17.90
2019-02-27T09:48:21.070Z,18.40
2019-02-27T09:50:49.504Z,18.80
2019-02-27T09:53:17.963Z,19.10
2019-02-27T09:55:46.398Z,19.60
2019-02-27T09:58:14.839Z,20.00
2019-02-27T10:00:48.018Z,20.50
2019-02-27T10:03:19.903Z,20.80
2019-02-27T10:05:46.697Z,21.10
2019-02-27T10:08:15.354Z,21.50
2019-02-27T10:10:45.822Z,21.70
2019-02-27T10:13:14.127Z,21.90
2019-02-27T10:15:42.802Z,21.50
2019-02-27T10:18:11.243Z,21.50
2019-02-27T10:20:39.681Z,21.80
2019-02-27T10:23:08.142Z,21.80
2019-02-27T10:25:36.621Z,21.00
2019-02-27T10:28:05.265Z,20.60
2019-02-27T10:30:33.883Z,21.10
2019-02-27T10:33:03.400Z,21.00
2019-02-27T10:35:34.574Z,21.30
2019-02-27T10:38:02.624Z,22.00
2019-02-27T10:40:31.153Z,22.30
2019-02-27T10:42:59.586Z,22.80
2019-02-27T10:45:28.031Z,23.10
2019-02-27T10:47:56.497Z,23.20
2019-02-27T10:50:24.935Z,23.30
2019-02-27T10:52:53.375Z,23.70
2019-02-27T10:55:22.735Z,24.00
2019-02-27T10:57:51.314Z,24.20
2019-02-27T11:00:27.250Z,24.40
2019-02-27T11:02:55.770Z,24.00
2019-02-27T11:05:26.494Z,24.50
2019-02-27T11:07:55.101Z,24.00
2019-02-27T11:10:24.072Z,22.70
2019-02-27T11:12:52.636Z,22.70
2019-02-27T11:17:50.093Z,24.00
2019-02-27T11:20:21.079Z,24.50
2019-02-27T11:22:48.864Z,24.90
2019-02-27T11:25:28.093Z,25.50
2019-02-27T11:27:56.616Z,26.10
2019-02-27T11:30:35.983Z,26.40
2019-02-27T11:35:29.416Z,26.70
2019-02-27T11:37:57.930Z,26.30
2019-02-27T11:40:27.542Z,26.10
2019-02-27T11:42:56.282Z,25.90
2019-02-27T11:45:24.938Z,26.20
2019-02-27T11:47:53.538Z,26.20
2019-02-27T11:50:22.223Z,26.10
2019-02-27T11:53:10.038Z,25.00
2019-02-27T11:55:58.166Z,24.40
2019-02-27T11:58:26.679Z,24.90
2019-02-27T12:00:55.263Z,24.80
2019-02-27T12:03:23.778Z,24.50
2019-02-27T12:05:52.610Z,25.30
2019-02-27T12:08:22.380Z,25.80
2019-02-27T12:10:51.219Z,25.90
2019-02-27T12:13:19.750Z,26.50
2019-02-27T12:15:48.196Z,26.40
2019-02-27T12:18:16.647Z,27.00
2019-02-27T12:20:45.174Z,27.00
2019-02-27T12:23:13.623Z,27.10
2019-02-27T12:25:42.437Z,27.00
2019-02-27T12:28:10.923Z,27.70
2019-02-27T12:30:39.427Z,27.90
2019-02-27T12:33:07.986Z,28.30
2019-02-27T12:35:37.210Z,28.60
2019-02-27T12:38:08.280Z,28.80
2019-02-27T12:40:36.355Z,26.90
2019-02-27T12:45:33.111Z,27.00
2019-02-27T12:48:01.607Z,27.10
2019-02-27T12:50:31.421Z,27.20
2019-02-27T12:53:00.259Z,27.20
2019-02-27T12:55:28.932Z,27.40
2019-02-27T12:57:57.463Z,26.10
2019-02-27T13:00:28.519Z,26.60
2019-02-27T13:02:58.935Z,27.40
2019-02-27T13:05:28.161Z,28.10
2019-02-27T13:07:57.111Z,28.50
2019-02-27T13:10:44.925Z,28.70
2019-02-27T13:13:13.370Z,29.30
2019-02-27T13:15:42.015Z,29.40
2019-02-27T13:18:10.495Z,29.30
2019-02-27T13:20:58.291Z,29.80
2019-02-27T13:25:57.431Z,30.00
2019-02-27T13:28:25.035Z,30.00
2019-02-27T13:31:06.013Z,29.70
2019-02-27T13:33:35.506Z,30.00
2019-02-27T13:36:08.260Z,30.10
2019-02-27T13:38:37.036Z,30.00
2019-02-27T13:41:07.652Z,29.70
2019-02-27T13:43:35.782Z,29.60
2019-02-27T13:46:04.365Z,29.90
2019-02-27T13:48:33.030Z,29.50
2019-02-27T13:51:02.601Z,29.30
2019-02-27T13:53:31.289Z,28.80
2019-02-27T13:55:59.774Z,28.00
2019-02-27T13:58:28.246Z,27.40
2019-02-27T14:00:56.850Z,24.30
2019-02-27T14:03:25.291Z,24.70
2019-02-27T14:05:53.775Z,24.90
2019-02-27T14:08:22.286Z,24.10
2019-02-27T14:10:53.369Z,24.20
2019-02-27T14:13:21.087Z,24.00
2019-02-27T14:15:49.528Z,23.60
2019-02-27T14:18:17.983Z,23.50
2019-02-27T14:20:46.626Z,23.40
2019-02-27T14:23:15.265Z,23.20
2019-02-27T14:25:43.806Z,23.10
2019-02-27T14:28:12.243Z,23.10
2019-02-27T14:30:46.666Z,23.00
2019-02-27T14:33:15.182Z,22.60
2019-02-27T14:35:43.695Z,22.40
2019-02-27T14:38:12.164Z,22.20
2019-02-27T14:40:41.151Z,22.10
2019-02-27T14:43:09.871Z,21.90
2019-02-27T14:45:40.650Z,21.70
2019-02-27T14:48:08.586Z,21.60
2019-02-27T14:50:37.110Z,21.50
2019-02-27T14:55:36.124Z,21.20
2019-02-27T14:58:04.129Z,21.00
2019-02-27T15:00:39.878Z,20.90
2019-02-27T15:03:05.302Z,20.70
2019-02-27T15:05:33.746Z,20.60
2019-02-27T15:08:02.208Z,20.50
2019-02-27T15:10:30.931Z,20.50
2019-02-27T15:12:59.490Z,20.50
2019-02-27T15:15:32.375Z,20.50
2019-02-27T15:18:01.489Z,20.40
2019-02-27T15:20:30.643Z,20.30
2019-02-27T15:22:59.177Z,20.20
2019-02-27T15:25:28.007Z,20.10
2019-02-27T15:27:58.750Z,20.00
2019-02-27T15:30:31.595Z,19.90
2019-02-27T15:33:03.722Z,19.80
2019-02-27T15:35:30.409Z,19.80
2019-02-27T15:37:59.198Z,19.70
2019-02-27T15:40:29.503Z,19.60
2019-02-27T15:42:58.590Z,19.50
2019-02-27T15:45:28.874Z,19.50
2019-02-27T15:47:57.525Z,19.40
2019-02-27T15:50:34.063Z,19.30
2019-02-27T15:53:03.152Z,19.20
2019-02-27T15:55:34.219Z,19.10
2019-02-27T15:58:01.798Z,19.00
2019-02-27T16:00:52.633Z,18.90
2019-02-27T16:03:22.843Z,18.80
2019-02-27T16:08:41.465Z,18.60
2019-02-27T16:11:14.056Z,18.50
2019-02-27T16:13:42.847Z,18.40
2019-02-27T16:16:12.929Z,18.30
2019-02-27T16:18:43.076Z,18.20
2019-02-27T16:21:12.131Z,18.10
2019-02-27T16:23:40.715Z,18.00
2019-02-27T16:26:09.179Z,17.90
2019-02-27T16:28:37.620Z,17.80
2019-02-27T16:31:07.035Z,17.60
2019-02-27T16:33:35.606Z,17.50
2019-02-27T16:36:04.147Z,17.40
2019-02-27T16:38:32.633Z,17.30
2019-02-27T16:41:01.121Z,17.10
2019-02-27T16:43:29.587Z,17.00
2019-02-27T16:45:58.036Z,16.80
2019-02-27T16:48:26.551Z,16.70
2019-02-27T16:50:59.763Z,16.60
2019-02-27T16:53:25.167Z,16.50
2019-02-27T16:55:53.650Z,16.30
2019-02-27T16:58:22.162Z,16.20
2019-02-27T17:00:54.399Z,16.00
2019-02-27T17:03:21.199Z,15.70
2019-02-27T17:05:49.856Z,15.30
2019-02-27T17:08:18.348Z,15.20
2019-02-27T17:10:51.646Z,15.10
2019-02-27T17:13:16.963Z,14.90
2019-02-27T17:15:45.411Z,14.70
2019-02-27T17:18:13.895Z,14.60
2019-02-27T17:20:45.894Z,14.60
2019-02-27T17:23:12.712Z,14.40
2019-02-27T17:25:41.247Z,14.20
2019-02-27T17:28:09.711Z,14.00
2019-02-27T17:30:38.398Z,13.70
2019-02-27T17:33:06.994Z,13.50
2019-02-27T17:35:35.527Z,13.40
2019-02-27T17:38:05.817Z,13.30
2019-02-27T17:40:37.486Z,13.00
2019-02-27T17:43:06.592Z,12.30
2019-02-27T17:45:34.846Z,12.00
2019-02-27T17:48:03.306Z,11.90
2019-02-27T17:50:32.440Z,11.90
2019-02-27T17:53:00.927Z,11.80
2019-02-27T17:55:29.439Z,11.90
2019-02-27T17:57:59.166Z,11.80
2019-02-27T18:00:39.640Z,11.50
2019-02-27T18:03:08.179Z,11.20
2019-02-27T18:05:36.790Z,11.10
2019-02-27T18:08:05.415Z,11.00
2019-02-27T18:10:37.082Z,10.90
2019-02-27T18:13:04.391Z,10.80
2019-02-27T18:15:32.964Z,10.80
2019-02-27T18:18:01.438Z,10.70
2019-02-27T18:20:31.922Z,10.60
2019-02-27T18:23:00.297Z,10.50
2019-02-27T18:25:28.816Z,10.30
2019-02-27T18:27:59.608Z,10.20
2019-02-27T18:30:27.484Z,10.10
2019-02-27T18:32:55.958Z,9.90
2019-02-27T18:35:28.454Z,9.60
2019-02-27T18:37:54.631Z,9.30
2019-02-27T18:40:23.659Z,9.20
2019-02-27T18:42:55.349Z,9.20
2019-02-27T18:45:29.145Z,9.20
2019-02-27T18:47:58.742Z,9.10
2019-02-27T18:50:27.456Z,9.10
2019-02-27T18:52:56.118Z,9.00
2019-02-27T18:55:29.514Z,8.90
2019-02-27T18:57:54.722Z,8.80
2019-02-27T19:00:25.518Z,8.70
2019-02-27T19:03:11.154Z,8.70
2019-02-27T19:05:42.072Z,8.60
2019-02-27T19:08:10.239Z,8.60
2019-02-27T19:10:42.457Z,8.40
2019-02-27T19:13:09.044Z,8.30
2019-02-27T19:15:37.490Z,8.20
2019-02-27T19:18:06.569Z,8.20
2019-02-27T19:20:43.881Z,8.10
2019-02-27T19:23:17.136Z,8.10
2019-02-27T19:26:01.986Z,8.00
2019-02-27T19:28:30.566Z,7.90
2019-02-27T19:30:59.143Z,7.80
2019-02-27T19:33:27.864Z,7.70
2019-02-27T19:35:57.535Z,7.60
2019-02-27T19:38:26.079Z,7.50
2019-02-27T19:40:54.611Z,7.50
2019-02-27T19:43:23.056Z,7.40
2019-02-27T19:45:51.487Z,7.30
2019-02-27T19:48:19.950Z,7.20
2019-02-27T19:50:48.399Z,7.20
2019-02-27T19:53:39.404Z,7.10
2019-02-27T19:56:06.522Z,7.00
2019-02-27T19:58:34.962Z,6.90
2019-02-27T20:01:03.429Z,6.90
2019-02-27T20:03:34.863Z,6.90
2019-02-27T20:06:21.470Z,7.00
2019-02-27T20:08:49.969Z,7.00
2019-02-27T20:11:18.572Z,6.80
2019-02-27T20:13:47.175Z,6.70
2019-02-27T20:16:17.740Z,6.50
2019-02-27T20:18:54.545Z,6.40
2019-02-27T20:21:36.789Z,6.40
2019-02-27T20:24:14.191Z,6.20
2019-02-27T20:26:44.272Z,6.10
2019-02-27T20:29:05.932Z,6.00
2019-02-27T20:31:34.669Z,5.90
2019-02-27T20:34:03.176Z,5.90
2019-02-27T20:36:33.149Z,5.90
2019-02-27T20:39:03.292Z,5.90
2019-02-27T20:41:31.803Z,5.80
2019-02-27T20:44:03.486Z,5.70
2019-02-27T20:46:30.610Z,5.60
2019-02-27T20:48:59.268Z,5.50
2019-02-27T20:51:27.775Z,5.30
2019-02-27T20:53:56.470Z,5.20
2019-02-27T20:56:25.044Z,5.10
2019-02-27T20:58:53.482Z,5.00
2019-02-27T21:01:22.023Z,5.00
2019-02-27T21:03:50.451Z,5.00
2019-02-27T21:06:19.054Z,4.90
2019-02-27T21:08:47.588Z,4.90
2019-02-27T21:11:16.047Z,4.80
2019-02-27T21:13:49.439Z,4.80
2019-02-27T21:16:15.588Z,4.80
2019-02-27T21:18:44.312Z,4.80
2019-02-27T21:21:12.830Z,4.80
2019-02-27T21:23:41.291Z,4.70
2019-02-27T21:26:09.727Z,4.70
2019-02-27T21:28:38.226Z,4.30
2019-02-27T21:31:06.706Z,4.20
2019-02-27T21:33:35.233Z,4.00
2019-02-27T21:36:03.761Z,3.90
2019-02-27T21:38:32.295Z,3.70
2019-02-27T21:41:00.733Z,3.70
2019-02-27T21:43:29.190Z,3.60
2019-02-27T21:45:57.618Z,3.70
2019-02-27T21:48:26.907Z,3.80
2019-02-27T21:50:56.290Z,3.80
2019-02-27T21:53:26.105Z,3.80
2019-02-27T21:55:54.906Z,3.80
2019-02-27T21:58:23.367Z,3.90
2019-02-27T22:00:51.869Z,3.90
2019-02-27T22:03:20.322Z,3.80
2019-02-27T22:05:52.671Z,3.80
2019-02-27T22:08:18.979Z,3.70
2019-02-27T22:11:06.828Z,3.70
2019-02-27T22:13:35.354Z,3.70
2019-02-27T22:16:04.043Z,3.70
2019-02-27T22:18:32.586Z,3.60
2019-02-27T22:21:01.030Z,3.50
2019-02-27T22:23:29.487Z,3.40
2019-02-27T22:25:57.928Z,3.40
2019-02-27T22:28:45.727Z,3.40
2019-02-27T22:31:33.508Z,3.40
2019-02-27T22:34:02.026Z,3.40
2019-02-27T22:36:30.475Z,3.30
2019-02-27T22:39:00.228Z,3.20
2019-02-27T22:41:48.583Z,3.10
2019-02-27T22:44:17.720Z,3.10
2019-02-27T22:46:47.751Z,3.00
2019-02-27T22:49:16.399Z,3.00
2019-02-27T22:51:48.170Z,2.90
2019-02-27T22:54:15.097Z,2.90
2019-02-27T22:56:50.055Z,2.70
2019-02-27T22:59:14.565Z,2.70
2019-02-27T23:01:50.518Z,2.70
2019-02-27T23:04:16.957Z,2.70
2019-02-27T23:06:47.182Z,2.60
2019-02-27T23:09:16.813Z,2.60
2019-02-27T23:11:45.320Z,2.60
2019-02-27T23:14:13.850Z,2.60
2019-02-27T23:16:42.292Z,2.60
2019-02-27T23:19:12.173Z,2.60
2019-02-27T23:21:41.128Z,2.60
2019-02-27T23:24:10.152Z,2.60
2019-02-27T23:26:39.480Z,2.60
2019-02-27T23:29:27.344Z,2.50
2019-02-27T23:31:56.048Z,2.40
2019-02-27T23:34:24.738Z,2.30
2019-02-27T23:36:55.971Z,2.20
2019-02-27T23:39:23.419Z,2.20
2019-02-27T23:41:53.987Z,2.10
2019-02-27T23:44:22.039Z,2.10
2019-02-27T23:46:54.439Z,2.10
2019-02-27T23:49:20.722Z,2.10
2019-02-27T23:51:49.170Z,2.00
2019-02-27T23:54:17.682Z,2.00
2019-02-27T23:56:46.149Z,1.90
2019-02-27T23:59:14.583Z,2.00
